Time;durP1;ratioP1;P1;durP2;ratioP2;P2;SDS_P1;SDS_P2;PMS_P1;PMS_P2;Temp;Humidity;BMP_temperature;BMP_pressure;BME280_temperature;BME280_humidity;BME280_pressure;Samples;Min_cycle;Max_cycle;Signal;HPM_P1;HPM_P2
2023/05/05 00:00:56;;;;;;;9.73;5.55;;;14.40;99.90;;;;;;5033143;28;20029;-69
2023/05/05 00:03:23;;;;;;;16.20;6.07;;;14.40;99.90;;;;;;5030423;28;20480;-69
2023/05/05 00:05:51;;;;;;;15.45;6.18;;;14.30;99.90;;;;;;5024227;28;20484;-68
2023/05/05 00:08:17;;;;;;;11.38;6.45;;;14.30;99.90;;;;;;5026262;28;20063;-68
2023/05/05 00:10:50;;;;;;;9.25;5.82;;;14.20;99.90;;;;;;5031243;28;20043;-84
2023/05/05 00:13:17;;;;;;;12.30;6.53;;;14.20;99.90;;;;;;5021025;28;20316;-68
2023/05/05 00:15:44;;;;;;;13.20;7.38;;;14.20;99.90;;;;;;5032707;28;20100;-68
2023/05/05 00:18:12;;;;;;;12.18;6.75;;;14.10;99.90;;;;;;5021800;28;20109;-68
2023/05/05 00:20:37;;;;;;;10.73;6.43;;;14.20;99.90;;;;;;5024736;28;20040;-68
2023/05/05 00:23:03;;;;;;;10.30;6.50;;;14.10;99.90;;;;;;5026957;28;20155;-78
2023/05/05 00:25:29;;;;;;;11.50;6.77;;;14.10;99.90;;;;;;5032555;28;20443;-84
2023/05/05 00:27:55;;;;;;;9.60;7.40;;;14.10;99.90;;;;;;5033539;28;20266;-68
2023/05/05 00:30:22;;;;;;;12.48;7.00;;;14.00;99.90;;;;;;5034153;28;20069;-68
2023/05/05 00:32:48;;;;;;;10.25;6.38;;;13.90;99.90;;;;;;5029103;28;20041;-69
2023/05/05 00:35:17;;;;;;;13.73;6.93;;;13.90;99.90;;;;;;5033934;28;20477;-74
2023/05/05 00:37:43;;;;;;;12.65;7.45;;;13.90;99.90;;;;;;5036275;28;20037;-68
2023/05/05 00:40:10;;;;;;;17.67;7.00;;;13.90;99.90;;;;;;5026921;28;20018;-86
2023/05/05 00:42:44;;;;;;;14.65;7.18;;;13.90;99.90;;;;;;5037835;28;20328;-69
2023/05/05 00:45:11;;;;;;;14.35;7.57;;;13.90;99.90;;;;;;5032598;28;20033;-68
2023/05/05 00:47:38;;;;;;;10.55;7.03;;;14.00;99.90;;;;;;5026295;28;20030;-84
2023/05/05 00:50:07;;;;;;;11.70;7.35;;;13.90;99.90;;;;;;5028096;28;20439;-73
2023/05/05 00:52:35;;;;;;;11.40;7.22;;;14.00;99.90;;;;;;5033207;28;20048;-68
2023/05/05 00:55:02;;;;;;;10.73;7.22;;;14.00;99.90;;;;;;5034997;28;20017;-69
2023/05/05 00:57:28;;;;;;;;;;;14.10;99.90;;;;;;5032989;28;20029;-68
2023/05/05 00:59:54;;;;;;;15.65;8.05;;;14.10;99.90;;;;;;5034727;28;20300;-69
2023/05/05 01:02:21;;;;;;;14.65;7.75;;;14.10;99.90;;;;;;5033749;28;20030;-68
2023/05/05 01:04:47;;;;;;;;;;;14.20;99.90;;;;;;5027373;28;20029;-68
2023/05/05 01:07:32;;;;;;;12.20;7.15;;;14.20;99.90;;;;;;5032424;28;20254;-68
2023/05/05 01:10:17;;;;;;;14.43;7.43;;;14.20;99.90;;;;;;5031850;28;20029;-68
2023/05/05 01:13:13;;;;;;;13.82;8.70;;;14.20;99.90;;;;;;5032779;28;20116;-69
2023/05/05 01:15:39;;;;;;;;;;;14.30;99.90;;;;;;5030240;28;20083;-69
2023/05/05 01:18:26;;;;;;;14.13;8.75;;;14.30;99.90;;;;;;5030660;28;19909;-70
2023/05/05 01:21:11;;;;;;;17.00;8.48;;;14.40;99.90;;;;;;5032823;28;20042;-69
2023/05/05 01:23:39;;;;;;;13.80;8.88;;;14.50;99.90;;;;;;5027917;28;20033;-70
2023/05/05 01:26:34;;;;;;;11.77;7.03;;;14.60;99.90;;;;;;5026302;28;20026;-69
2023/05/05 01:29:21;;;;;;;18.83;7.90;;;14.60;99.90;;;;;;5024346;28;20048;-69
2023/05/05 01:31:53;;;;;;;14.73;6.95;;;14.60;99.90;;;;;;5025114;28;20034;-69
2023/05/05 01:34:34;;;;;;;12.32;6.68;;;14.70;99.90;;;;;;5022928;28;20105;-69
2023/05/05 01:37:16;;;;;;;11.30;6.45;;;14.80;99.90;;;;;;5035076;28;20025;-70
2023/05/05 01:39:43;;;;;;;7.97;5.22;;;14.90;99.90;;;;;;5025070;28;20026;-84
2023/05/05 01:42:13;;;;;;;8.43;5.55;;;15.00;99.90;;;;;;5018597;28;20052;-83
2023/05/05 01:44:43;;;;;;;10.35;5.53;;;15.00;99.90;;;;;;5023784;28;20025;-69
2023/05/05 01:47:15;;;;;;;10.25;5.38;;;15.00;99.90;;;;;;5017669;28;20057;-69
2023/05/05 01:49:45;;;;;;;6.78;4.72;;;15.00;99.90;;;;;;5024072;28;20297;-69
2023/05/05 01:52:13;;;;;;;9.20;4.40;;;15.00;99.90;;;;;;5018410;28;20037;-68
2023/05/05 01:54:40;;;;;;;11.10;4.38;;;15.00;99.90;;;;;;5025207;28;20053;-69
2023/05/05 01:57:08;;;;;;;8.95;4.38;;;15.00;99.90;;;;;;5016025;28;20375;-76
2023/05/05 01:59:36;;;;;;;11.05;4.70;;;15.00;99.90;;;;;;5027817;28;20026;-69
2023/05/05 02:02:02;;;;;;;11.05;5.63;;;14.90;99.90;;;;;;5035417;28;20369;-70
2023/05/05 02:04:31;;;;;;;5.83;4.37;;;14.90;99.90;;;;;;5034761;28;20021;-76
2023/05/05 02:06:58;;;;;;;6.90;3.90;;;14.90;99.90;;;;;;5016418;28;20269;-70
2023/05/05 02:09:25;;;;;;;6.95;3.85;;;14.80;99.90;;;;;;5017140;28;20111;-69
2023/05/05 02:11:52;;;;;;;5.40;3.53;;;14.80;99.90;;;;;;5020039;28;20060;-70
2023/05/05 02:14:19;;;;;;;5.15;3.20;;;14.80;99.90;;;;;;5027439;28;20542;-69
2023/05/05 02:16:46;;;;;;;5.72;2.67;;;14.80;99.90;;;;;;5023249;28;20413;-70
2023/05/05 02:19:13;;;;;;;8.45;3.40;;;14.90;99.90;;;;;;5031349;28;20029;-70
2023/05/05 02:21:40;;;;;;;8.85;3.55;;;14.80;99.90;;;;;;5029562;28;20384;-69
2023/05/05 02:24:09;;;;;;;9.88;3.22;;;14.80;99.90;;;;;;5032703;28;20354;-69
2023/05/05 02:26:38;;;;;;;6.45;3.13;;;14.90;99.90;;;;;;5032691;28;20030;-69
2023/05/05 02:29:17;;;;;;;5.40;3.35;;;14.90;99.90;;;;;;5027529;28;20029;-70
2023/05/05 02:31:46;;;;;;;8.10;4.40;;;14.90;99.90;;;;;;5033169;28;20432;-69
2023/05/05 02:34:15;;;;;;;12.77;3.90;;;14.80;99.90;;;;;;5032283;28;20156;-69
2023/05/05 02:36:42;;;;;;;10.57;4.38;;;14.70;99.90;;;;;;5031756;28;20116;-69
2023/05/05 02:39:37;;;;;;;7.85;4.60;;;14.70;99.90;;;;;;5033391;28;20033;-86
2023/05/05 02:42:04;;;;;;;5.93;3.80;;;14.70;99.90;;;;;;5025385;28;20033;-70
2023/05/05 02:44:33;;;;;;;8.13;4.15;;;14.70;99.90;;;;;;5032060;28;20025;-68
2023/05/05 02:47:01;;;;;;;7.63;3.47;;;14.60;99.90;;;;;;5030892;28;20027;-69
2023/05/05 02:49:26;;;;;;;5.38;3.53;;;14.60;99.90;;;;;;5017545;28;20040;-69
2023/05/05 02:51:52;;;;;;;5.20;3.13;;;14.50;99.90;;;;;;5032113;28;20029;-69
2023/05/05 02:54:18;;;;;;;6.50;3.10;;;14.50;99.90;;;;;;5031613;28;20025;-69
2023/05/05 02:56:50;;;;;;;13.23;3.53;;;14.40;99.90;;;;;;5032384;28;20084;-70
2023/05/05 02:59:21;;;;;;;7.68;2.72;;;14.40;99.90;;;;;;5027467;28;20079;-69
2023/05/05 03:02:02;;;;;;;6.25;2.85;;;14.30;99.90;;;;;;5027577;28;20420;-69
2023/05/05 03:04:41;;;;;;;6.95;3.60;;;14.30;99.90;;;;;;5024193;28;20029;-69
2023/05/05 03:07:22;;;;;;;9.70;3.50;;;14.20;99.90;;;;;;5018544;28;20026;-70
2023/05/05 03:10:04;;;;;;;5.03;3.47;;;14.20;99.90;;;;;;5034008;28;20025;-69
2023/05/05 03:12:37;;;;;;;6.43;3.10;;;14.10;99.90;;;;;;5027485;28;20033;-86
2023/05/05 03:15:06;;;;;;;5.25;3.03;;;14.10;99.90;;;;;;5033999;28;20029;-69
2023/05/05 03:17:32;;;;;;;11.02;3.58;;;14.00;99.90;;;;;;5031991;28;20104;-69
2023/05/05 03:19:58;;;;;;;6.57;3.53;;;13.90;99.90;;;;;;5025801;28;20029;-69
2023/05/05 03:22:26;;;;;;;4.82;2.60;;;13.80;99.90;;;;;;5031186;28;20065;-69
2023/05/05 03:24:52;;;;;;;6.32;2.53;;;13.80;99.90;;;;;;5032957;28;20021;-69
2023/05/05 03:27:19;;;;;;;5.28;2.50;;;13.70;99.90;;;;;;5025072;28;20048;-69
2023/05/05 03:29:45;;;;;;;;;;;13.80;99.90;;;;;;5032622;28;20042;-69
2023/05/05 03:32:10;;;;;;;8.77;2.10;;;13.80;99.90;;;;;;5027724;28;19921;-69
2023/05/05 03:34:36;;;;;;;6.67;2.40;;;13.80;99.90;;;;;;5018664;28;20276;-68
2023/05/05 03:37:02;;;;;;;4.20;2.60;;;13.80;99.90;;;;;;5032900;28;20060;-69
2023/05/05 03:39:28;;;;;;;3.43;2.07;;;13.70;99.90;;;;;;5023176;28;20034;-69
2023/05/05 03:41:54;;;;;;;10.00;2.70;;;13.70;99.90;;;;;;5026257;28;20021;-69
2023/05/05 03:44:19;;;;;;;3.90;2.17;;;13.60;99.90;;;;;;5021276;28;20022;-69
2023/05/05 03:46:45;;;;;;;4.83;2.43;;;13.60;99.90;;;;;;5021160;28;20428;-69
2023/05/05 03:49:11;;;;;;;8.27;2.37;;;13.60;99.90;;;;;;5014718;28;20022;-69
2023/05/05 03:51:37;;;;;;;7.63;2.70;;;13.60;99.90;;;;;;5026861;28;20575;-69
2023/05/05 03:54:03;;;;;;;6.27;2.60;;;13.50;99.90;;;;;;5023320;28;20033;-91
2023/05/05 03:56:28;;;;;;;5.60;2.90;;;13.50;99.90;;;;;;5025811;28;20049;-69
2023/05/05 03:58:54;;;;;;;8.07;2.63;;;13.50;99.90;;;;;;5032944;28;20049;-69
2023/05/05 04:01:20;;;;;;;3.57;2.07;;;13.40;99.90;;;;;;5032726;28;20026;-69
2023/05/05 04:03:46;;;;;;;6.20;2.60;;;13.40;99.90;;;;;;5020058;28;20085;-88
2023/05/05 04:06:11;;;;;;;4.60;2.70;;;13.30;99.90;;;;;;5022111;28;20029;-68
2023/05/05 04:08:37;;;;;;;4.63;2.40;;;13.30;99.90;;;;;;5021239;28;20033;-68
2023/05/05 04:11:03;;;;;;;4.27;2.80;;;13.30;99.90;;;;;;5020135;28;20037;-68
2023/05/05 04:13:29;;;;;;;3.83;2.80;;;13.30;99.90;;;;;;5024434;28;20025;-68
2023/05/05 04:15:55;;;;;;;5.80;2.70;;;13.30;99.90;;;;;;5018922;28;20021;-68
2023/05/05 04:18:20;;;;;;;5.47;2.90;;;13.20;99.90;;;;;;5024846;28;20028;-68
2023/05/05 04:20:46;;;;;;;4.23;2.57;;;13.20;99.90;;;;;;5024218;28;20271;-68
2023/05/05 04:23:12;;;;;;;6.30;2.43;;;13.20;99.90;;;;;;5022313;28;20054;-68
2023/05/05 04:25:38;;;;;;;6.07;3.00;;;13.10;99.90;;;;;;5018069;28;20029;-68
2023/05/05 04:28:04;;;;;;;5.47;2.80;;;13.10;99.90;;;;;;5029622;28;20037;-68
2023/05/05 04:30:29;;;;;;;7.13;3.10;;;13.10;99.90;;;;;;5024704;28;20057;-72
2023/05/05 04:32:55;;;;;;;4.23;2.93;;;13.00;99.90;;;;;;5018184;28;20040;-68
2023/05/05 04:35:21;;;;;;;3.47;2.90;;;13.00;99.90;;;;;;5017452;28;20014;-68
2023/05/05 04:37:47;;;;;;;4.30;3.37;;;13.10;99.90;;;;;;5017926;28;20014;-68
2023/05/05 04:40:13;;;;;;;6.53;3.28;;;13.00;99.90;;;;;;5018134;28;20295;-69
2023/05/05 04:42:39;;;;;;;9.27;3.93;;;13.00;99.90;;;;;;5017767;28;20090;-69
2023/05/05 04:45:05;;;;;;;7.50;3.50;;;13.00;99.90;;;;;;5025842;28;20022;-69
2023/05/05 04:47:35;;;;;;;9.70;3.40;;;13.00;99.90;;;;;;5024896;28;20047;-69
2023/05/05 04:50:01;;;;;;;4.95;3.30;;;12.90;99.90;;;;;;5028710;28;20037;-86
2023/05/05 04:52:26;;;;;;;10.90;3.80;;;13.00;99.90;;;;;;5036527;28;20030;-69
2023/05/05 04:54:52;;;;;;;8.77;4.10;;;12.90;99.90;;;;;;5035269;28;20511;-68
2023/05/05 04:57:18;;;;;;;6.83;4.30;;;12.90;99.90;;;;;;5037503;28;20060;-69
2023/05/05 04:59:43;;;;;;;8.70;4.77;;;12.90;99.90;;;;;;5034650;28;20033;-69
2023/05/05 05:02:09;;;;;;;8.60;3.90;;;13.00;99.90;;;;;;5030833;28;20029;-69
2023/05/05 05:04:35;;;;;;;9.73;4.77;;;13.00;99.90;;;;;;5018534;28;20030;-68
2023/05/05 05:07:01;;;;;;;12.50;4.87;;;13.10;99.90;;;;;;5019063;28;20439;-69
2023/05/05 05:09:26;;;;;;;11.57;5.50;;;13.10;99.90;;;;;;5017409;28;20312;-69
2023/05/05 05:11:52;;;;;;;10.97;5.80;;;13.20;99.90;;;;;;5021656;28;20034;-69
2023/05/05 05:14:18;;;;;;;11.17;5.93;;;13.20;99.90;;;;;;5025265;28;20159;-69
2023/05/05 05:16:43;;;;;;;12.67;5.33;;;13.20;99.90;;;;;;5022776;28;20041;-69
2023/05/05 05:19:09;;;;;;;10.30;5.77;;;13.30;99.90;;;;;;5016927;28;20029;-70
2023/05/05 05:21:35;;;;;;;12.23;5.73;;;13.30;99.90;;;;;;5031929;28;20111;-69
2023/05/05 05:24:01;;;;;;;13.17;6.17;;;13.30;99.90;;;;;;5020237;28;20440;-69
2023/05/05 05:26:26;;;;;;;11.03;6.60;;;13.40;99.90;;;;;;5017581;28;20037;-68
2023/05/05 05:28:52;;;;;;;12.63;7.23;;;13.50;99.90;;;;;;5018625;28;20030;-69
2023/05/05 05:31:18;;;;;;;17.33;7.20;;;13.60;99.90;;;;;;5023443;28;20086;-82
2023/05/05 05:33:44;;;;;;;14.40;6.77;;;13.60;99.90;;;;;;5022416;28;20460;-69
2023/05/05 05:36:10;;;;;;;12.87;6.27;;;13.70;99.90;;;;;;5016731;28;20398;-69
2023/05/05 05:38:35;;;;;;;13.60;7.07;;;13.80;99.90;;;;;;5017029;28;20022;-68
2023/05/05 05:41:05;;;;;;;14.90;7.27;;;13.90;99.90;;;;;;5017484;28;20037;-69
2023/05/05 05:43:31;;;;;;;15.80;7.45;;;13.90;99.90;;;;;;5028249;28;20329;-69
2023/05/05 05:45:57;;;;;;;14.00;7.07;;;13.90;99.90;;;;;;5016247;28;20030;-68
2023/05/05 05:48:27;;;;;;;21.63;8.55;;;14.00;99.90;;;;;;5016798;28;20037;-69
2023/05/05 05:50:53;;;;;;;15.98;8.82;;;14.10;99.90;;;;;;5025722;28;20041;-69
2023/05/05 05:53:19;;;;;;;13.20;8.50;;;14.20;99.90;;;;;;5027032;28;20038;-69
2023/05/05 05:55:48;;;;;;;17.03;9.53;;;14.20;99.90;;;;;;5020987;28;20068;-68
2023/05/05 05:58:15;;;;;;;16.67;8.77;;;14.20;99.90;;;;;;5028744;28;20028;-69
2023/05/05 06:00:41;;;;;;;16.27;9.90;;;14.20;99.90;;;;;;5031260;28;20021;-69
2023/05/05 06:03:07;;;;;;;19.53;9.23;;;14.20;99.90;;;;;;5034317;28;20029;-69
2023/05/05 06:05:33;;;;;;;16.33;10.57;;;14.20;99.90;;;;;;5032293;28;20321;-69
2023/05/05 06:07:58;;;;;;;19.70;9.50;;;14.20;99.90;;;;;;5035994;28;20251;-69
2023/05/05 06:10:24;;;;;;;20.20;9.97;;;14.20;99.90;;;;;;5028208;28;20037;-68
2023/05/05 06:12:50;;;;;;;14.63;8.77;;;14.30;99.90;;;;;;5024980;28;20059;-68
2023/05/05 06:15:16;;;;;;;18.60;9.53;;;14.30;99.90;;;;;;5029123;28;20033;-69
2023/05/05 06:17:41;;;;;;;16.70;8.83;;;14.30;99.90;;;;;;5032341;28;20025;-69
2023/05/05 06:20:08;;;;;;;24.73;10.43;;;14.40;99.90;;;;;;5034529;28;20025;-70
2023/05/05 06:22:34;;;;;;;23.00;9.57;;;14.40;99.90;;;;;;5028344;28;20061;-69
2023/05/05 06:24:59;;;;;;;19.20;10.50;;;14.50;99.90;;;;;;5030079;28;20432;-69
2023/05/05 06:27:25;;;;;;;18.57;11.00;;;14.50;99.90;;;;;;5023488;28;20026;-68
2023/05/05 06:29:51;;;;;;;24.03;10.83;;;14.50;99.90;;;;;;5032047;28;20321;-68
2023/05/05 06:32:17;;;;;;;20.60;10.73;;;14.60;99.90;;;;;;5031463;28;20087;-69
2023/05/05 06:34:45;;;;;;;26.63;12.23;;;14.70;99.90;;;;;;5025064;28;20022;-73
2023/05/05 06:37:11;;;;;;;25.20;12.52;;;14.70;99.90;;;;;;5034312;28;20110;-69
2023/05/05 06:39:37;;;;;;;19.90;11.80;;;14.80;99.90;;;;;;5032311;28;20155;-69
2023/05/05 06:42:03;;;;;;;18.20;11.67;;;14.90;99.90;;;;;;5032819;28;20028;-68
2023/05/05 06:44:29;;;;;;;23.93;12.27;;;15.00;99.90;;;;;;5028236;28;20427;-69
2023/05/05 06:46:55;;;;;;;;;;;15.10;99.90;;;;;;5035646;28;20044;-69
2023/05/05 06:49:21;;;;;;;16.73;10.75;;;15.10;99.90;;;;;;5031401;28;19977;-71
2023/05/05 06:51:47;;;;;;;20.57;11.17;;;15.20;99.90;;;;;;5041105;28;20033;-70
2023/05/05 06:54:13;;;;;;;19.60;11.05;;;15.30;99.90;;;;;;5036411;28;20421;-68
2023/05/05 06:56:40;;;;;;;;;;;15.30;99.90;;;;;;5026732;28;20030;-68
2023/05/05 06:59:06;;;;;;;20.25;10.35;;;15.40;99.90;;;;;;5030420;28;20379;-70
2023/05/05 07:01:32;;;;;;;19.20;10.80;;;15.50;99.90;;;;;;5033412;28;20033;-69
2023/05/05 07:03:58;;;;;;;23.27;11.37;;;15.60;99.90;;;;;;5015687;28;20044;-69
2023/05/05 07:06:24;;;;;;;27.35;11.50;;;15.60;99.90;;;;;;5015386;28;20076;-68
2023/05/05 07:08:49;;;;;;;26.60;11.17;;;15.70;99.90;;;;;;5033043;28;20033;-69
2023/05/05 07:11:15;;;;;;;18.67;10.43;;;15.80;99.90;;;;;;5023764;28;20431;-69
2023/05/05 07:13:41;;;;;;;17.90;9.90;;;15.90;99.90;;;;;;5014342;28;20088;-70
2023/05/05 07:16:07;;;;;;;20.97;9.47;;;16.00;99.90;;;;;;5015059;28;20483;-69
2023/05/05 07:18:32;;;;;;;22.33;10.77;;;16.30;99.90;;;;;;5027204;28;20021;-69
2023/05/05 07:20:58;;;;;;;16.13;8.70;;;16.60;99.90;;;;;;5028191;28;20018;-70
2023/05/05 07:23:24;;;;;;;17.83;9.97;;;17.10;99.90;;;;;;5033309;28;20064;-69
2023/05/05 07:25:50;;;;;;;19.37;8.17;;;17.60;99.90;;;;;;5016542;28;20022;-71
2023/05/05 07:28:16;;;;;;;16.35;8.50;;;18.00;99.90;;;;;;5021305;28;20018;-74
2023/05/05 07:30:42;;;;;;;14.07;8.33;;;18.60;99.90;;;;;;5029602;28;20049;-69
2023/05/05 07:33:07;;;;;;;18.37;8.47;;;19.00;99.90;;;;;;5016134;28;20286;-70
2023/05/05 07:35:33;;;;;;;15.80;7.17;;;19.40;99.90;;;;;;5025569;28;20316;-68
2023/05/05 07:37:59;;;;;;;10.63;7.68;;;19.80;99.90;;;;;;5031512;28;20013;-70
2023/05/05 07:40:25;;;;;;;14.07;7.33;;;20.10;99.90;;;;;;5032124;28;20026;-70
2023/05/05 07:42:51;;;;;;;18.53;6.67;;;20.40;99.90;;;;;;5033219;28;20029;-75
2023/05/05 07:45:16;;;;;;;8.87;5.63;;;20.70;99.90;;;;;;5032504;28;20404;-69
2023/05/05 07:47:42;;;;;;;6.93;4.83;;;20.90;99.90;;;;;;5029527;28;20025;-70
2023/05/05 07:50:09;;;;;;;10.50;5.97;;;21.00;99.90;;;;;;5031077;28;20037;-69
2023/05/05 07:52:35;;;;;;;11.38;5.28;;;21.00;99.90;;;;;;5031401;28;20405;-70
2023/05/05 07:55:01;;;;;;;11.63;5.22;;;21.00;99.90;;;;;;5018823;28;20152;-70
2023/05/05 07:57:27;;;;;;;11.82;5.32;;;21.10;99.90;;;;;;5024361;28;20083;-70
2023/05/05 07:59:53;;;;;;;7.97;4.30;;;21.30;99.90;;;;;;5032787;28;20029;-71
2023/05/05 08:02:20;;;;;;;14.70;4.67;;;21.50;99.90;;;;;;5029319;28;20047;-70
2023/05/05 08:04:46;;;;;;;9.55;4.22;;;21.80;99.90;;;;;;5022481;28;20029;-70
2023/05/05 08:07:12;;;;;;;7.60;4.03;;;22.00;99.90;;;;;;5014210;28;20018;-69
2023/05/05 08:09:38;;;;;;;8.93;4.70;;;22.20;99.90;;;;;;5023330;28;20032;-69
2023/05/05 08:12:04;;;;;;;9.70;3.63;;;22.40;99.90;;;;;;5021532;28;20010;-85
2023/05/05 08:14:32;;;;;;;7.63;3.38;;;22.60;99.90;;;;;;5034557;28;20029;-69
2023/05/05 08:16:58;;;;;;;7.53;3.47;;;22.80;99.90;;;;;;5028076;28;20079;-73
2023/05/05 08:19:24;;;;;;;9.40;3.30;;;22.90;99.90;;;;;;5027945;28;20026;-70
2023/05/05 08:21:50;;;;;;;4.63;2.60;;;23.00;99.90;;;;;;5037965;28;20032;-70
2023/05/05 08:24:15;;;;;;;3.95;2.80;;;22.90;99.90;;;;;;5016429;28;20050;-70
2023/05/05 08:26:56;;;;;;;5.87;2.90;;;22.80;99.90;;;;;;5013873;28;20025;-70
2023/05/05 08:29:22;;;;;;;3.67;2.33;;;22.50;99.90;;;;;;5032132;28;20293;-70
2023/05/05 08:31:48;;;;;;;8.47;2.50;;;22.50;99.90;;;;;;5036009;28;20033;-70
2023/05/05 08:34:14;;;;;;;5.72;2.30;;;22.50;99.90;;;;;;5019725;28;20443;-71
2023/05/05 08:36:40;;;;;;;5.30;2.25;;;22.40;99.90;;;;;;5016928;28;20369;-70
2023/05/05 08:39:06;;;;;;;4.53;2.50;;;22.40;99.90;;;;;;5015274;28;20032;-70
2023/05/05 08:41:32;;;;;;;6.32;1.92;;;22.30;99.90;;;;;;5038794;28;20435;-72
2023/05/05 08:43:58;;;;;;;5.13;2.05;;;22.20;99.90;;;;;;5038782;28;20048;-70
2023/05/05 08:46:27;;;;;;;3.37;1.80;;;22.00;99.90;;;;;;5019197;28;20436;-70
2023/05/05 08:48:54;;;;;;;6.28;1.75;;;21.80;99.90;;;;;;5017830;28;20333;-70
2023/05/05 08:51:21;;;;;;;6.18;3.05;;;21.60;99.90;;;;;;5033720;28;20057;-71
2023/05/05 08:53:53;;;;;;;8.10;2.97;;;21.20;99.90;;;;;;5035955;28;20036;-72
2023/05/05 08:56:23;;;;;;;8.80;2.35;;;21.10;99.90;;;;;;5033448;28;20371;-70
2023/05/05 08:58:50;;;;;;;8.20;2.80;;;20.90;99.90;;;;;;5027686;28;20049;-71
2023/05/05 09:01:17;;;;;;;6.82;2.90;;;20.90;99.90;;;;;;5039178;28;20118;-72
2023/05/05 09:03:44;;;;;;;5.43;2.63;;;20.80;99.90;;;;;;5033658;28;20034;-71
2023/05/05 09:06:10;;;;;;;7.90;3.22;;;20.80;99.90;;;;;;5034568;28;20030;-70
2023/05/05 09:08:37;;;;;;;8.35;3.25;;;20.70;99.90;;;;;;5032300;28;20028;-71
2023/05/05 09:11:03;;;;;;;9.30;3.55;;;20.50;99.90;;;;;;5037532;28;20033;-71
2023/05/05 09:13:30;;;;;;;;;;;20.40;99.90;;;;;;5033676;28;20026;-71
2023/05/05 09:15:56;;;;;;;6.15;3.30;;;20.20;99.90;;;;;;5033476;28;19916;-70
2023/05/05 09:18:22;;;;;;;;;;;20.00;99.90;;;;;;5030586;28;20052;-71
2023/05/05 09:20:48;;;;;;;10.23;3.65;;;19.80;99.90;;;;;;5022878;28;20279;-72
2023/05/05 09:23:15;;;;;;;6.78;3.78;;;19.60;99.90;;;;;;5023280;28;20033;-69
2023/05/05 09:25:44;;;;;;;7.38;3.88;;;19.40;99.90;;;;;;5029201;28;20060;-69
2023/05/05 09:28:12;;;;;;;13.77;4.15;;;19.30;99.90;;;;;;5026873;28;20113;-70
2023/05/05 09:30:39;;;;;;;7.00;4.32;;;19.20;99.90;;;;;;5016514;28;20552;-69
2023/05/05 09:33:05;;;;;;;6.55;3.88;;;18.90;99.90;;;;;;5022743;28;20409;-69
2023/05/05 09:35:51;;;;;;;5.90;4.13;;;18.60;99.90;;;;;;5024865;28;20079;-70
2023/05/05 09:38:18;;;;;;;7.68;3.72;;;18.40;99.90;;;;;;5020585;28;20045;-69
2023/05/05 09:40:48;;;;;;;6.72;4.00;;;18.30;99.90;;;;;;5023395;28;20029;-68
2023/05/05 09:43:15;;;;;;;5.57;4.03;;;18.10;99.90;;;;;;5020555;28;20032;-68
2023/05/05 09:45:42;;;;;;;8.77;4.00;;;18.00;99.90;;;;;;5025968;28;20389;-68
2023/05/05 09:48:24;;;;;;;7.10;3.90;;;17.90;99.90;;;;;;5027224;28;20030;-67
2023/05/05 09:50:50;;;;;;;11.80;4.50;;;17.80;99.90;;;;;;5032955;28;20056;-67
2023/05/05 09:53:17;;;;;;;7.72;4.20;;;17.80;99.90;;;;;;5032764;28;20083;-67
2023/05/05 09:55:52;;;;;;;5.80;3.78;;;17.70;99.90;;;;;;5031318;28;20038;-68
2023/05/05 09:58:20;;;;;;;6.68;3.92;;;17.60;99.90;;;;;;5028435;28;20097;-67
2023/05/05 10:00:46;;;;;;;10.55;3.63;;;17.50;99.90;;;;;;5033854;28;20033;-69
2023/05/05 10:03:12;;;;;;;8.60;3.83;;;17.30;99.90;;;;;;5021806;28;20018;-70
2023/05/05 10:05:52;;;;;;;6.22;3.63;;;17.20;99.90;;;;;;5014274;28;20033;-68
2023/05/05 10:08:19;;;;;;;6.80;3.25;;;16.90;99.90;;;;;;5030904;28;20080;-70
2023/05/05 10:10:54;;;;;;;11.68;3.90;;;16.70;99.90;;;;;;5023623;28;20384;-72
2023/05/05 10:13:21;;;;;;;5.40;3.67;;;16.50;99.90;;;;;;5023963;28;20061;-70
2023/05/05 10:15:50;;;;;;;6.25;4.05;;;16.40;99.90;;;;;;5020670;28;20022;-70
2023/05/05 10:18:20;;;;;;;10.10;4.25;;;16.30;99.90;;;;;;5024246;28;20049;-70
2023/05/05 10:20:58;;;;;;;6.55;4.00;;;16.20;99.90;;;;;;5031148;28;20061;-71
2023/05/05 10:23:47;;;;;;;9.25;4.28;;;16.10;99.90;;;;;;5029775;28;20072;-71
2023/05/05 10:26:15;;;;;;;8.40;4.53;;;16.00;99.90;;;;;;5037939;28;20045;-70
2023/05/05 10:28:49;;;;;;;7.43;4.38;;;16.00;99.90;;;;;;5030862;28;20021;-70
2023/05/05 10:31:45;;;;;;;8.27;4.63;;;16.00;99.90;;;;;;5026363;28;20073;-69
2023/05/05 10:34:19;;;;;;;9.80;5.13;;;16.10;99.90;;;;;;5031470;28;20026;-70
2023/05/05 10:36:45;;;;;;;7.45;4.80;;;16.10;99.90;;;;;;5033642;28;20045;-71
2023/05/05 10:39:15;;;;;;;8.95;4.68;;;16.10;99.90;;;;;;5029950;28;20050;-76
2023/05/05 10:42:08;;;;;;;7.22;4.22;;;16.10;99.90;;;;;;5032941;28;20024;-69
2023/05/05 10:44:35;;;;;;;8.00;4.88;;;16.10;99.90;;;;;;5027293;28;20064;-76
2023/05/05 10:47:02;;;;;;;9.23;5.20;;;16.10;99.90;;;;;;5032493;28;20023;-77
2023/05/05 10:49:34;;;;;;;11.10;5.95;;;16.10;99.90;;;;;;5031714;28;20444;-69
2023/05/05 10:52:24;;;;;;;9.45;5.20;;;16.10;99.90;;;;;;5033542;28;20025;-78
2023/05/05 10:55:20;;;;;;;9.23;5.45;;;16.00;99.90;;;;;;5035022;28;20033;-78
2023/05/05 10:57:51;;;;;;;10.13;5.50;;;16.00;99.90;;;;;;5022262;28;20037;-77
2023/05/05 11:00:38;;;;;;;9.68;5.85;;;16.00;99.90;;;;;;5030170;28;20546;-68
2023/05/05 11:03:16;;;;;;;11.10;5.47;;;16.00;99.90;;;;;;5026586;28;20420;-68
2023/05/05 11:06:01;;;;;;;8.75;5.38;;;16.00;99.90;;;;;;5031723;28;20660;-68
2023/05/05 11:08:27;;;;;;;10.35;5.50;;;16.00;99.90;;;;;;5035376;28;20036;-69
2023/05/05 11:10:53;;;;;;;12.33;6.00;;;16.10;99.90;;;;;;5035054;28;20316;-68
2023/05/05 11:13:19;;;;;;;15.07;6.27;;;16.10;99.90;;;;;;5026725;28;20037;-68
2023/05/05 11:15:46;;;;;;;;;;;16.10;99.90;;;;;;5032007;28;20403;-68
2023/05/05 11:18:34;;;;;;;12.80;5.85;;;16.10;99.90;;;;;;5032681;28;19909;-68
2023/05/05 11:21:02;;;;;;;10.85;7.13;;;16.10;99.90;;;;;;5032312;28;20033;-69
2023/05/05 11:23:28;;;;;;;13.13;7.25;;;16.00;99.90;;;;;;5034452;28;20083;-69
2023/05/05 11:25:56;;;;;;;12.88;6.45;;;16.00;99.90;;;;;;5032057;28;20025;-68
2023/05/05 11:28:30;;;;;;;14.82;7.03;;;16.00;99.90;;;;;;5031801;28;20026;-78
2023/05/05 11:30:57;;;;;;;10.75;6.00;;;15.90;99.90;;;;;;5030899;28;20049;-69
2023/05/05 11:33:37;;;;;;;;;;;15.90;99.90;;;;;;5028296;28;20419;-69
2023/05/05 11:36:03;;;;;;;11.23;5.38;;;15.80;99.90;;;;;;5028158;28;19913;-69
2023/05/05 11:38:38;;;;;;;9.43;5.87;;;15.70;99.90;;;;;;5033791;28;20075;-69
2023/05/05 11:41:37;;;;;;;10.10;6.07;;;15.70;99.90;;;;;;5027586;28;20030;-69
2023/05/05 11:44:13;;;;;;;14.95;6.85;;;15.60;99.90;;;;;;5029258;28;20029;-69
2023/05/05 11:46:40;;;;;;;17.38;5.97;;;15.60;99.90;;;;;;5029425;28;20316;-70
2023/05/05 11:49:07;;;;;;;11.48;6.80;;;15.70;99.90;;;;;;5033911;28;20033;-70
2023/05/05 11:51:33;;;;;;;13.25;6.30;;;15.70;99.90;;;;;;5033061;28;20024;-70
2023/05/05 11:53:59;;;;;;;13.32;5.82;;;15.60;99.90;;;;;;5030702;28;21420;-76
2023/05/05 11:56:25;;;;;;;10.02;6.15;;;15.60;99.90;;;;;;5030629;28;20370;-69
2023/05/05 11:59:08;;;;;;;11.97;6.40;;;15.60;99.90;;;;;;5029350;28;20034;-68
2023/05/05 12:01:39;;;;;;;14.30;6.43;;;15.60;99.90;;;;;;5026608;28;20017;-77
2023/05/05 12:04:04;;;;;;;11.63;5.55;;;15.50;99.90;;;;;;5029438;28;20112;-69
2023/05/05 12:06:33;;;;;;;13.23;6.23;;;15.50;99.90;;;;;;5027550;28;20147;-69
2023/05/05 12:09:00;;;;;;;12.40;6.25;;;15.40;99.90;;;;;;5032973;28;20104;-68
2023/05/05 12:11:25;;;;;;;14.15;6.57;;;15.40;99.90;;;;;;5030216;28;20029;-70
2023/05/05 12:14:09;;;;;;;11.53;6.47;;;15.30;99.90;;;;;;5025214;28;20030;-69
2023/05/05 12:16:36;;;;;;;16.27;6.18;;;15.30;99.90;;;;;;5020617;28;20033;-68
2023/05/05 12:19:04;;;;;;;;;;;15.30;99.90;;;;;;5023518;28;20404;-69
2023/05/05 12:21:30;;;;;;;10.68;5.50;;;15.20;99.90;;;;;;5034025;28;20003;-69
2023/05/05 12:23:56;;;;;;;10.93;6.03;;;15.10;99.90;;;;;;5034163;28;20101;-71
2023/05/05 12:26:30;;;;;;;13.20;5.97;;;15.00;99.90;;;;;;5034656;28;20508;-70
2023/05/05 12:28:56;;;;;;;13.30;6.32;;;15.00;99.90;;;;;;5031197;28;20026;-70
2023/05/05 12:31:32;;;;;;;;;;;15.00;99.90;;;;;;5020351;28;20041;-76
2023/05/05 12:33:57;;;;;;;11.37;5.33;;;15.00;99.90;;;;;;5026940;28;19913;-69
2023/05/05 12:36:23;;;;;;;11.13;5.63;;;15.00;99.90;;;;;;5038035;28;20033;-70
2023/05/05 12:38:49;;;;;;;10.03;5.50;;;14.90;99.90;;;;;;5024749;28;20313;-76
2023/05/05 12:41:20;;;;;;;11.23;5.43;;;14.90;99.90;;;;;;5038006;28;20025;-70
2023/05/05 12:43:46;;;;;;;11.30;5.20;;;14.90;99.90;;;;;;5026581;28;20079;-70
2023/05/05 12:46:13;;;;;;;12.23;5.53;;;14.90;99.90;;;;;;5038149;28;20486;-70
2023/05/05 12:48:42;;;;;;;14.45;5.95;;;14.90;99.90;;;;;;5033290;28;20037;-70
2023/05/05 12:51:16;;;;;;;13.55;5.65;;;14.90;99.90;;;;;;5033535;28;20095;-70